createdAt,value
2022-08-03T00:00:33.722Z,1.80
2022-08-03T00:03:05.268Z,1.55
2022-08-03T00:05:34.547Z,1.60
2022-08-03T00:08:01.617Z,1.75
2022-08-03T00:10:28.792Z,1.73
2022-08-03T00:13:00.074Z,1.48
2022-08-03T00:15:26.542Z,1.50
2022-08-03T00:17:54.084Z,1.70
2022-08-03T00:20:28.493Z,1.55
2022-08-03T00:22:55.050Z,1.90
2022-08-03T00:25:24.101Z,1.90
2022-08-03T00:27:50.509Z,1.60
2022-08-03T00:30:20.046Z,1.73
2022-08-03T00:32:48.937Z,1.40
2022-08-03T00:35:28.695Z,1.48
2022-08-03T00:38:06.431Z,1.63
2022-08-03T00:40:33.406Z,1.70
2022-08-03T00:43:04.072Z,1.50
2022-08-03T00:45:35.239Z,1.52
2022-08-03T00:48:02.921Z,1.27
2022-08-03T00:50:32.652Z,1.17
2022-08-03T00:52:59.648Z,1.10
2022-08-03T00:55:26.327Z,1.50
2022-08-03T00:57:53.297Z,1.55
2022-08-03T01:00:22.728Z,1.50
2022-08-03T01:02:49.915Z,1.55
2022-08-03T01:05:16.879Z,1.33
2022-08-03T01:08:22.352Z,1.42
2022-08-03T01:11:10.626Z,1.60
2022-08-03T01:14:03.649Z,1.40
2022-08-03T01:16:37.698Z,1.30
2022-08-03T01:19:22.544Z,1.65
2022-08-03T01:22:08.939Z,1.90
2022-08-03T01:24:57.931Z,1.90
2022-08-03T01:28:04.816Z,1.75
2022-08-03T01:30:35.696Z,1.60
2022-08-03T01:33:05.494Z,1.63
2022-08-03T01:35:51.063Z,2.05
2022-08-03T01:38:44.943Z,1.63
2022-08-03T01:41:19.182Z,1.80
2022-08-03T01:44:27.357Z,1.63
2022-08-03T01:46:40.315Z,1.40
2022-08-03T01:49:14.953Z,2.05
2022-08-03T01:52:02.973Z,1.88
2022-08-03T01:54:29.979Z,2.05
2022-08-03T01:56:58.679Z,1.90
2022-08-03T01:59:26.475Z,2.20
2022-08-03T02:02:15.567Z,1.67
2022-08-03T02:04:42.450Z,1.50
2022-08-03T02:07:09.890Z,1.80
2022-08-03T02:09:39.311Z,1.80
2022-08-03T02:12:10.632Z,1.85
2022-08-03T02:14:37.913Z,2.40
2022-08-03T02:17:06.287Z,1.83
2022-08-03T02:19:35.733Z,1.98
2022-08-03T02:22:02.609Z,1.83
2022-08-03T02:24:30.105Z,1.92
2022-08-03T02:26:57.495Z,1.80
2022-08-03T02:29:38.732Z,1.88
2022-08-03T02:32:13.458Z,2.22
2022-08-03T02:34:42.289Z,1.95
2022-08-03T02:37:10.616Z,1.75
2022-08-03T02:39:39.943Z,2.13
2022-08-03T02:42:12.221Z,2.08
2022-08-03T02:44:41.583Z,2.15
2022-08-03T02:47:13.157Z,2.05
2022-08-03T02:49:51.385Z,1.95
2022-08-03T02:52:23.422Z,1.80
2022-08-03T02:54:55.119Z,1.45
2022-08-03T02:57:25.963Z,1.63
2022-08-03T02:59:53.713Z,1.70
2022-08-03T03:02:20.857Z,2.00
2022-08-03T03:05:50.661Z,2.20
2022-08-03T03:07:51.848Z,2.40
2022-08-03T03:10:23.607Z,2.03
2022-08-03T03:12:56.289Z,2.10
2022-08-03T03:15:25.564Z,1.80
2022-08-03T03:17:56.002Z,2.03
2022-08-03T03:20:29.080Z,1.85
2022-08-03T03:23:02.917Z,2.33
2022-08-03T03:25:33.203Z,2.17
2022-08-03T03:28:00.795Z,2.13
2022-08-03T03:30:28.197Z,2.08
2022-08-03T03:32:55.323Z,2.22
2022-08-03T03:35:25.139Z,2.28
2022-08-03T03:37:52.169Z,2.05
2022-08-03T03:40:19.537Z,2.00
2022-08-03T03:42:46.187Z,2.00
2022-08-03T03:45:12.914Z,1.95
2022-08-03T03:47:41.726Z,1.95
2022-08-03T03:50:08.613Z,1.60
2022-08-03T03:52:35.119Z,2.05
2022-08-03T03:55:04.343Z,2.20
2022-08-03T03:57:30.953Z,1.98
2022-08-03T03:59:57.701Z,2.30
2022-08-03T04:02:24.452Z,2.30
2022-08-03T04:05:09.503Z,2.35
2022-08-03T04:08:05.752Z,2.15
2022-08-03T04:10:52.287Z,2.20
2022-08-03T04:13:20.832Z,2.40
2022-08-03T04:15:47.883Z,1.83
2022-08-03T04:18:15.469Z,2.35
2022-08-03T04:20:45.838Z,2.00
2022-08-03T04:23:17.004Z,2.22
2022-08-03T04:25:49.089Z,2.45
2022-08-03T04:28:29.987Z,2.20
2022-08-03T04:30:59.973Z,1.88
2022-08-03T04:33:29.380Z,1.88
2022-08-03T04:36:01.677Z,2.00
2022-08-03T04:38:30.502Z,2.10
2022-08-03T04:40:57.041Z,2.30
2022-08-03T04:43:26.758Z,1.70
2022-08-03T04:45:56.761Z,2.00
2022-08-03T04:48:23.297Z,1.73
2022-08-03T04:50:51.985Z,2.15
2022-08-03T04:53:18.454Z,1.85
2022-08-03T04:55:46.552Z,1.90
2022-08-03T04:58:12.999Z,1.48
2022-08-03T05:00:39.489Z,1.70
2022-08-03T05:03:19.414Z,1.60
2022-08-03T05:05:53.083Z,1.63
2022-08-03T05:08:34.388Z,1.50
2022-08-03T05:11:01.024Z,1.52
2022-08-03T05:13:27.492Z,2.22
2022-08-03T05:15:56.216Z,1.80
2022-08-03T05:18:25.217Z,2.08
2022-08-03T05:20:51.664Z,1.70
2022-08-03T05:23:18.210Z,1.63
2022-08-03T05:25:49.745Z,2.65
2022-08-03T05:28:19.085Z,2.75
2022-08-03T05:30:48.045Z,3.05
2022-08-03T05:33:14.835Z,2.70
2022-08-03T05:35:55.908Z,2.33
2022-08-03T05:38:34.265Z,2.63
2022-08-03T05:41:21.924Z,2.47
2022-08-03T05:43:50.292Z,3.17
2022-08-03T05:46:16.720Z,2.35
2022-08-03T05:48:43.462Z,2.63
2022-08-03T05:51:11.717Z,2.63
2022-08-03T05:53:39.441Z,2.30
2022-08-03T05:56:13.985Z,1.90
2022-08-03T05:58:46.648Z,2.40
2022-08-03T06:01:16.759Z,1.85
2022-08-03T06:03:49.301Z,2.20
2022-08-03T06:06:18.547Z,2.20
2022-08-03T06:08:48.784Z,2.25
2022-08-03T06:11:16.383Z,1.75
2022-08-03T06:13:46.197Z,2.00
2022-08-03T06:16:12.635Z,2.00
2022-08-03T06:18:41.485Z,1.90
2022-08-03T06:21:14.832Z,1.55
2022-08-03T06:23:55.102Z,1.30
2022-08-03T06:26:25.365Z,1.73
2022-08-03T06:28:54.202Z,1.15
2022-08-03T06:31:33.348Z,1.85
2022-08-03T06:34:30.526Z,1.40
2022-08-03T06:36:52.183Z,1.40
2022-08-03T06:39:23.831Z,1.45
2022-08-03T06:41:50.543Z,1.33
2022-08-03T06:44:16.940Z,1.83
2022-08-03T06:46:43.425Z,1.52
2022-08-03T06:49:09.953Z,1.42
2022-08-03T06:52:03.823Z,1.67
2022-08-03T06:54:25.495Z,1.50
2022-08-03T06:56:54.510Z,1.30
2022-08-03T07:00:10.871Z,1.20
2022-08-03T07:02:07.460Z,1.30
2022-08-03T07:04:33.899Z,1.25
2022-08-03T07:07:05.036Z,1.20
2022-08-03T07:09:33.926Z,0.90
2022-08-03T07:12:02.277Z,1.25
2022-08-03T07:14:31.081Z,1.30
2022-08-03T07:16:59.610Z,1.23
2022-08-03T07:19:26.099Z,1.08
2022-08-03T07:21:54.771Z,1.33
2022-08-03T07:24:29.169Z,1.00
2022-08-03T07:26:55.591Z,1.15
2022-08-03T07:29:22.005Z,0.90
2022-08-03T07:31:48.487Z,1.10
2022-08-03T07:34:17.263Z,1.10
2022-08-03T07:36:45.972Z,1.30
2022-08-03T07:39:17.838Z,1.30
2022-08-03T07:41:47.692Z,1.20
2022-08-03T07:44:14.517Z,1.00
2022-08-03T07:46:45.755Z,1.10
2022-08-03T07:49:14.778Z,1.20
2022-08-03T07:51:43.567Z,1.00
2022-08-03T07:54:15.405Z,0.98
2022-08-03T07:56:41.861Z,0.95
2022-08-03T07:59:08.321Z,1.08
2022-08-03T08:01:37.148Z,0.90
2022-08-03T08:04:03.813Z,0.90
2022-08-03T08:06:32.550Z,0.80
2022-08-03T08:09:01.711Z,0.85
2022-08-03T08:11:30.278Z,0.70
2022-08-03T08:13:56.732Z,0.90
2022-08-03T08:16:23.182Z,0.90
2022-08-03T08:18:49.580Z,0.88
2022-08-03T08:21:15.938Z,0.82
2022-08-03T08:23:48.046Z,1.00
2022-08-03T08:26:26.095Z,1.00
2022-08-03T08:28:52.766Z,0.98
2022-08-03T08:31:19.264Z,0.70
2022-08-03T08:34:03.603Z,0.75
2022-08-03T08:36:31.431Z,0.90
2022-08-03T08:39:00.005Z,0.70
2022-08-03T08:41:32.013Z,0.65
2022-08-03T08:44:00.172Z,0.88
2022-08-03T08:46:27.198Z,0.60
2022-08-03T08:48:54.424Z,0.60
2022-08-03T08:51:59.187Z,0.75
2022-08-03T08:54:18.796Z,0.60
2022-08-03T08:56:52.388Z,0.70
2022-08-03T08:59:18.990Z,0.60
2022-08-03T09:01:45.501Z,0.70
2022-08-03T09:04:15.333Z,0.60
2022-08-03T09:06:58.635Z,0.80
2022-08-03T09:10:10.661Z,0.70
2022-08-03T09:12:39.170Z,0.70
2022-08-03T09:15:24.097Z,0.70
2022-08-03T09:17:52.945Z,0.50
2022-08-03T09:20:23.810Z,0.73
2022-08-03T09:23:00.676Z,0.60
2022-08-03T09:25:37.129Z,0.90
2022-08-03T09:28:33.723Z,0.90
2022-08-03T09:31:01.337Z,0.60
2022-08-03T09:33:36.212Z,0.70
2022-08-03T09:36:07.593Z,0.50
2022-08-03T09:38:36.156Z,0.90
2022-08-03T09:41:02.571Z,0.75
2022-08-03T09:43:48.110Z,0.77
2022-08-03T09:46:16.818Z,1.00
2022-08-03T09:48:45.595Z,0.93
2022-08-03T09:52:28.918Z,0.80
2022-08-03T09:54:03.821Z,0.70
2022-08-03T09:56:42.469Z,1.00
2022-08-03T09:59:12.267Z,1.13
2022-08-03T10:01:41.845Z,1.00
2022-08-03T10:04:15.119Z,1.05
2022-08-03T10:06:41.794Z,1.00
2022-08-03T10:09:18.633Z,0.90
2022-08-03T10:11:46.889Z,1.33
2022-08-03T10:14:19.479Z,0.80
2022-08-03T10:16:47.066Z,1.30
2022-08-03T10:19:16.090Z,1.00
2022-08-03T10:21:51.986Z,0.90
2022-08-03T10:24:24.969Z,0.75
2022-08-03T10:27:06.033Z,1.00
2022-08-03T10:29:39.459Z,1.40
2022-08-03T10:32:30.445Z,0.98
2022-08-03T10:35:21.010Z,1.10
2022-08-03T10:38:06.189Z,0.90
2022-08-03T10:40:48.158Z,0.90
2022-08-03T10:43:28.575Z,1.20
2022-08-03T10:45:56.188Z,1.05
2022-08-03T10:48:22.657Z,1.10
2022-08-03T10:50:54.459Z,0.90
2022-08-03T10:53:54.160Z,1.05
2022-08-03T10:56:53.415Z,1.05
2022-08-03T10:59:49.472Z,0.98
2022-08-03T11:02:18.831Z,1.17
2022-08-03T11:04:47.555Z,0.90
2022-08-03T11:07:26.527Z,1.05
2022-08-03T11:09:57.088Z,1.00
2022-08-03T11:12:31.148Z,1.15
2022-08-03T11:15:03.800Z,0.98
2022-08-03T11:17:30.437Z,1.30
2022-08-03T11:19:58.464Z,1.20
2022-08-03T11:22:47.675Z,1.08
2022-08-03T11:25:53.565Z,1.20
2022-08-03T11:28:29.461Z,1.42
2022-08-03T11:30:59.444Z,1.40
2022-08-03T11:33:32.585Z,1.23
2022-08-03T11:36:04.409Z,1.30
2022-08-03T11:38:33.179Z,1.40
2022-08-03T11:41:02.508Z,1.10
2022-08-03T11:43:34.708Z,1.10
2022-08-03T11:46:05.564Z,0.90
2022-08-03T11:48:35.095Z,1.00
2022-08-03T11:51:02.436Z,1.20
2022-08-03T11:53:28.880Z,0.93
2022-08-03T11:55:59.963Z,1.20
2022-08-03T11:58:58.211Z,1.08
2022-08-03T12:01:21.273Z,1.20
2022-08-03T12:03:52.296Z,1.30
2022-08-03T12:06:19.078Z,1.20
2022-08-03T12:08:46.067Z,1.00
2022-08-03T12:11:17.864Z,1.10
2022-08-03T12:14:44.122Z,1.42
2022-08-03T12:16:43.456Z,1.30
2022-08-03T12:19:10.021Z,1.10
2022-08-03T12:21:57.248Z,1.08
2022-08-03T12:24:28.446Z,1.25
2022-08-03T12:27:00.098Z,1.55
2022-08-03T12:29:26.914Z,1.55
2022-08-03T12:31:58.266Z,1.30
2022-08-03T12:34:47.206Z,1.05
2022-08-03T12:37:21.748Z,1.20
2022-08-03T12:40:05.173Z,1.20
2022-08-03T12:42:40.149Z,1.15
2022-08-03T12:45:24.175Z,1.02
2022-08-03T12:47:55.118Z,1.15
2022-08-03T12:50:36.123Z,1.05
2022-08-03T12:53:08.887Z,1.10
2022-08-03T12:55:56.551Z,1.35
2022-08-03T12:58:34.223Z,1.00
2022-08-03T13:01:05.241Z,1.20
2022-08-03T13:03:50.389Z,1.45
2022-08-03T13:06:24.678Z,1.40
2022-08-03T13:09:05.466Z,1.40
2022-08-03T13:11:47.654Z,1.10
2022-08-03T13:14:20.855Z,1.38
2022-08-03T13:16:48.863Z,1.23
2022-08-03T13:19:16.158Z,1.40
2022-08-03T13:22:01.810Z,1.50
2022-08-03T13:24:31.833Z,1.30
2022-08-03T13:26:59.305Z,1.10
2022-08-03T13:29:25.783Z,1.00
2022-08-03T13:31:54.353Z,1.23
2022-08-03T13:34:23.614Z,1.20
2022-08-03T13:37:08.478Z,1.00
2022-08-03T13:39:57.973Z,1.27
2022-08-03T13:42:25.319Z,1.33
2022-08-03T13:44:51.793Z,1.10
2022-08-03T13:47:19.193Z,1.00
2022-08-03T13:49:59.886Z,1.10
2022-08-03T13:52:34.309Z,1.13
2022-08-03T13:55:02.536Z,1.30
2022-08-03T13:58:04.030Z,1.20
2022-08-03T14:00:27.725Z,1.30
2022-08-03T14:03:13.857Z,1.20
2022-08-03T14:05:43.795Z,1.42
2022-08-03T14:08:11.108Z,1.38
2022-08-03T14:10:42.496Z,1.48
2022-08-03T14:13:12.493Z,1.23
2022-08-03T14:15:43.406Z,1.20
2022-08-03T14:18:28.774Z,1.10
2022-08-03T14:21:07.362Z,1.33
2022-08-03T14:23:35.329Z,1.27
2022-08-03T14:26:01.762Z,1.20
2022-08-03T14:28:28.640Z,1.20
2022-08-03T14:30:58.135Z,1.10
2022-08-03T14:33:24.803Z,0.85
2022-08-03T14:35:54.142Z,1.30
2022-08-03T14:38:21.197Z,1.38
2022-08-03T14:40:50.814Z,1.50
2022-08-03T14:43:23.228Z,1.30
2022-08-03T14:45:53.927Z,1.27
2022-08-03T14:50:24.337Z,1.10
2022-08-03T14:51:07.961Z,1.38
2022-08-03T14:53:34.673Z,1.33
2022-08-03T14:56:01.934Z,1.20
2022-08-03T14:58:30.652Z,1.10
2022-08-03T15:00:57.133Z,1.35
2022-08-03T15:03:26.483Z,1.15
2022-08-03T15:05:54.777Z,0.98
2022-08-03T15:08:22.234Z,1.10
2022-08-03T15:10:53.795Z,1.10
2022-08-03T15:13:20.401Z,1.58
2022-08-03T15:15:48.483Z,1.33
2022-08-03T15:18:20.077Z,1.10
2022-08-03T15:20:50.349Z,1.42
2022-08-03T15:23:20.256Z,1.65
2022-08-03T15:26:03.974Z,1.30
2022-08-03T15:28:37.526Z,1.10
2022-08-03T15:31:04.273Z,1.30
2022-08-03T15:33:32.982Z,1.30
2022-08-03T15:36:04.412Z,0.82
2022-08-03T15:38:30.859Z,1.42
2022-08-03T15:40:58.857Z,1.13
2022-08-03T15:43:25.311Z,1.15
2022-08-03T15:46:19.488Z,1.27
2022-08-03T15:48:43.661Z,1.30
2022-08-03T15:51:12.638Z,1.20
2022-08-03T15:53:39.206Z,1.25
2022-08-03T15:56:12.144Z,1.10
2022-08-03T15:59:09.135Z,1.48
2022-08-03T16:01:30.281Z,1.20
2022-08-03T16:03:56.743Z,1.10
2022-08-03T16:06:35.042Z,1.25
2022-08-03T16:09:23.424Z,1.10
2022-08-03T16:11:55.541Z,1.50
2022-08-03T16:14:32.020Z,1.60
2022-08-03T16:17:02.235Z,1.60
2022-08-03T16:19:28.663Z,0.90
2022-08-03T16:21:55.040Z,1.20
2022-08-03T16:24:27.867Z,1.25
2022-08-03T16:26:55.162Z,1.20
2022-08-03T16:29:24.152Z,1.10
2022-08-03T16:31:55.315Z,1.38
2022-08-03T16:34:21.809Z,1.30
2022-08-03T16:36:48.257Z,1.33
2022-08-03T16:39:17.144Z,1.20
2022-08-03T16:41:53.762Z,1.17
2022-08-03T16:44:30.920Z,1.20
2022-08-03T16:46:58.552Z,1.42
2022-08-03T16:49:53.144Z,1.13
2022-08-03T16:52:18.091Z,1.50
2022-08-03T16:54:53.093Z,1.65
2022-08-03T16:57:56.514Z,1.45
2022-08-03T17:00:11.992Z,1.20
2022-08-03T17:02:48.180Z,1.23
2022-08-03T17:05:14.891Z,1.30
2022-08-03T17:07:41.448Z,1.00
2022-08-03T17:10:14.097Z,1.10
2022-08-03T17:12:43.087Z,1.17
2022-08-03T17:15:10.600Z,1.40
2022-08-03T17:17:55.713Z,1.35
2022-08-03T17:20:29.825Z,1.30
2022-08-03T17:23:34.927Z,1.50
2022-08-03T17:26:04.047Z,1.30
2022-08-03T17:28:48.618Z,1.20
2022-08-03T17:31:23.231Z,1.08
2022-08-03T17:34:00.484Z,1.27
2022-08-03T17:36:54.061Z,1.30
2022-08-03T17:39:17.252Z,1.27
2022-08-03T17:41:49.969Z,1.10
2022-08-03T17:44:33.098Z,1.10
2022-08-03T17:47:04.679Z,1.20
2022-08-03T17:49:33.279Z,1.20
2022-08-03T17:52:28.537Z,1.25
2022-08-03T17:55:57.179Z,1.27
2022-08-03T17:58:02.459Z,1.20
2022-08-03T18:00:51.611Z,1.30
2022-08-03T18:03:28.268Z,1.40
2022-08-03T18:06:11.534Z,1.40
2022-08-03T18:08:46.623Z,1.00
2022-08-03T18:11:19.756Z,1.42
2022-08-03T18:14:18.861Z,1.20
2022-08-03T18:16:57.228Z,1.35
2022-08-03T18:20:02.501Z,1.00
2022-08-03T18:22:15.261Z,1.20
2022-08-03T18:24:44.528Z,1.30
2022-08-03T18:27:13.480Z,1.20
2022-08-03T18:29:40.582Z,1.17
2022-08-03T18:32:13.665Z,1.08
2022-08-03T18:34:53.700Z,1.45
2022-08-03T18:37:25.320Z,1.10
2022-08-03T18:39:57.894Z,1.20
2022-08-03T18:42:26.300Z,1.20
2022-08-03T18:44:56.526Z,0.80
2022-08-03T18:47:52.270Z,0.70
2022-08-03T18:50:30.807Z,1.20
2022-08-03T18:53:21.055Z,1.13
2022-08-03T18:56:03.273Z,0.90
2022-08-03T18:58:51.375Z,1.00
2022-08-03T19:02:03.989Z,1.40
2022-08-03T19:04:37.173Z,1.17
2022-08-03T19:07:11.379Z,1.05
2022-08-03T19:09:59.369Z,1.20
2022-08-03T19:12:47.557Z,1.60
2022-08-03T19:15:15.807Z,1.08
2022-08-03T19:17:53.737Z,0.98
2022-08-03T19:20:21.967Z,1.17
2022-08-03T19:22:53.443Z,1.05
2022-08-03T19:25:20.131Z,0.90
2022-08-03T19:28:06.141Z,1.00
2022-08-03T19:30:53.463Z,0.85
2022-08-03T19:33:20.411Z,0.90
2022-08-03T19:38:38.333Z,0.90
2022-08-03T19:41:07.694Z,1.00
2022-08-03T19:43:49.397Z,0.90
2022-08-03T19:46:31.213Z,0.82
2022-08-03T19:49:14.985Z,0.93
2022-08-03T19:52:03.013Z,0.82
2022-08-03T19:54:53.367Z,0.95
2022-08-03T19:57:23.430Z,0.75
2022-08-03T19:59:53.531Z,0.90
2022-08-03T20:02:26.497Z,0.60
2022-08-03T20:04:55.209Z,1.00
2022-08-03T20:07:27.039Z,0.80
2022-08-03T20:09:59.555Z,1.10
2022-08-03T20:12:30.624Z,1.30
2022-08-03T20:15:03.630Z,0.90
2022-08-03T20:17:54.060Z,1.13
2022-08-03T20:20:29.605Z,1.10
2022-08-03T20:22:58.015Z,1.00
2022-08-03T20:25:37.655Z,1.23
2022-08-03T20:28:15.315Z,1.17
2022-08-03T20:30:44.164Z,0.90
2022-08-03T20:33:11.172Z,1.25
2022-08-03T20:35:41.907Z,1.23
2022-08-03T20:38:14.824Z,1.15
2022-08-03T20:40:41.990Z,1.00
2022-08-03T20:43:11.356Z,1.00
2022-08-03T20:46:00.710Z,0.90
2022-08-03T20:48:27.609Z,1.13
2022-08-03T20:50:57.759Z,1.15
2022-08-03T20:53:57.279Z,1.13
2022-08-03T20:56:14.531Z,1.02
2022-08-03T20:58:42.409Z,0.90
2022-08-03T21:01:27.594Z,0.98
2022-08-03T21:04:06.795Z,0.77
2022-08-03T21:06:45.493Z,1.00
2022-08-03T21:09:19.030Z,1.00
2022-08-03T21:11:51.717Z,1.00
2022-08-03T21:13:10.762Z,0.90
2022-08-03T21:14:22.532Z,0.90
2022-08-03T21:16:51.766Z,1.20
2022-08-03T21:19:20.656Z,0.98
2022-08-03T21:21:48.983Z,0.82
2022-08-03T21:24:17.777Z,1.00
2022-08-03T21:26:50.530Z,1.08
2022-08-03T21:29:17.275Z,0.80
2022-08-03T21:31:47.256Z,0.98
2022-08-03T21:34:17.493Z,0.90
2022-08-03T21:36:43.938Z,1.13
2022-08-03T21:39:16.207Z,0.95
2022-08-03T21:41:42.798Z,1.05
2022-08-03T21:44:09.592Z,0.90
2022-08-03T21:46:40.960Z,1.20
2022-08-03T21:50:05.405Z,1.08
2022-08-03T21:51:59.944Z,1.00
2022-08-03T21:54:38.473Z,1.17
2022-08-03T21:57:09.216Z,1.20
2022-08-03T21:59:39.614Z,1.30
2022-08-03T22:02:22.493Z,1.10
2022-08-03T22:04:55.267Z,0.90
2022-08-03T22:07:24.432Z,0.60
2022-08-03T22:09:53.418Z,1.00
2022-08-03T22:12:26.386Z,1.10
2022-08-03T22:15:01.306Z,0.80
2022-08-03T22:17:55.571Z,1.40
2022-08-03T22:20:16.610Z,0.93
2022-08-03T22:22:55.675Z,1.10
2022-08-03T22:25:27.318Z,1.10
2022-08-03T22:27:56.786Z,1.00
2022-08-03T22:30:23.198Z,1.13
2022-08-03T22:32:56.051Z,0.90
2022-08-03T22:35:24.776Z,1.00
2022-08-03T22:37:56.603Z,0.90
2022-08-03T22:40:23.083Z,1.20
2022-08-03T22:42:50.585Z,0.82
2022-08-03T22:45:45.247Z,1.10
2022-08-03T22:48:07.710Z,0.90
2022-08-03T22:50:37.418Z,1.10
2022-08-03T22:53:06.192Z,1.55
2022-08-03T22:55:33.076Z,1.20
2022-08-03T22:57:59.501Z,1.17
2022-08-03T23:00:30.561Z,1.10
2022-08-03T23:02:58.615Z,1.30
2022-08-03T23:06:01.647Z,1.25
2022-08-03T23:08:20.567Z,1.10
2022-08-03T23:10:47.522Z,1.20
2022-08-03T23:13:17.974Z,1.10
2022-08-03T23:15:55.157Z,1.10
2022-08-03T23:18:23.167Z,1.00
2022-08-03T23:20:53.302Z,1.30
2022-08-03T23:23:20.746Z,1.30
2022-08-03T23:25:49.325Z,1.00
2022-08-03T23:28:16.305Z,1.10
2022-08-03T23:30:49.107Z,1.02
2022-08-03T23:33:17.570Z,1.20
2022-08-03T23:36:31.125Z,1.10
2022-08-03T23:38:59.342Z,1.25
2022-08-03T23:41:25.755Z,1.23
2022-08-03T23:43:54.154Z,1.27
2022-08-03T23:46:26.413Z,1.00
2022-08-03T23:48:53.678Z,1.30
2022-08-03T23:51:31.946Z,1.10
2022-08-03T23:54:33.601Z,1.25
2022-08-03T23:57:31.755Z,1.23
